createdAt,value
2022-10-05T00:00:26.430Z,89.09
2022-10-05T00:01:26.451Z,89.09
2022-10-05T00:02:26.412Z,88.98
2022-10-05T00:03:26.415Z,88.78
2022-10-05T00:04:26.390Z,88.88
2022-10-05T00:05:26.420Z,88.98
2022-10-05T00:06:26.401Z,89.18
2022-10-05T00:07:26.349Z,89.29
2022-10-05T00:08:26.331Z,89.29
2022-10-05T00:09:26.340Z,89.29
2022-10-05T00:10:26.326Z,89.29
2022-10-05T00:11:26.312Z,89.18
2022-10-05T00:12:26.315Z,89.12
2022-10-05T00:13:26.290Z,89.23
2022-10-05T00:14:26.293Z,89.33
2022-10-05T00:15:26.263Z,89.43
2022-10-05T00:16:26.284Z,89.53
2022-10-05T00:17:26.246Z,89.64
2022-10-05T00:18:26.238Z,89.64
2022-10-05T00:19:26.228Z,89.64
2022-10-05T00:20:26.223Z,89.64
2022-10-05T00:21:26.208Z,89.74
2022-10-05T00:22:26.206Z,89.84
2022-10-05T00:23:26.182Z,89.84
2022-10-05T00:24:26.181Z,89.84
2022-10-05T00:25:26.188Z,89.94
2022-10-05T00:26:26.151Z,90.05
2022-10-05T00:27:26.150Z,90.25
2022-10-05T00:28:26.152Z,90.25
2022-10-05T00:29:26.104Z,90.05
2022-10-05T00:30:26.100Z,90.15
2022-10-05T00:31:26.154Z,90.45
2022-10-05T00:32:26.084Z,90.45
2022-10-05T00:33:26.072Z,90.25
2022-10-05T00:34:26.058Z,89.94
2022-10-05T00:35:26.051Z,89.74
2022-10-05T00:36:26.028Z,89.74
2022-10-05T00:37:26.045Z,89.74
2022-10-05T00:38:26.013Z,89.74
2022-10-05T00:39:25.999Z,89.84
2022-10-05T00:40:26.010Z,89.89
2022-10-05T00:41:25.976Z,89.78
2022-10-05T00:42:25.965Z,89.89
2022-10-05T00:43:25.954Z,89.89
2022-10-05T00:44:25.941Z,89.89
2022-10-05T00:45:26.024Z,89.98
2022-10-05T00:46:25.941Z,90.19
2022-10-05T00:47:25.920Z,90.30
2022-10-05T00:48:25.902Z,90.34
2022-10-05T00:49:25.888Z,90.44
2022-10-05T00:50:25.893Z,90.34
2022-10-05T00:51:25.865Z,90.34
2022-10-05T00:52:25.848Z,90.34
2022-10-05T00:53:25.857Z,90.34
2022-10-05T00:54:25.840Z,90.54
2022-10-05T00:55:25.844Z,90.64
2022-10-05T00:56:25.812Z,90.54
2022-10-05T00:57:25.807Z,90.44
2022-10-05T00:58:25.786Z,90.54
2022-10-05T00:59:25.789Z,90.64
2022-10-05T01:00:25.771Z,90.64
2022-10-05T01:01:25.799Z,90.54
2022-10-05T01:02:25.805Z,90.54
2022-10-05T01:03:25.728Z,90.54
2022-10-05T01:04:25.717Z,90.44
2022-10-05T01:05:25.717Z,90.34
2022-10-05T01:06:25.707Z,90.28
2022-10-05T01:07:25.689Z,90.07
2022-10-05T01:08:25.670Z,89.97
2022-10-05T01:09:25.677Z,89.87
2022-10-05T01:10:25.650Z,89.87
2022-10-05T01:11:25.665Z,89.76
2022-10-05T01:12:25.641Z,89.56
2022-10-05T01:13:25.620Z,89.56
2022-10-05T01:14:25.608Z,89.56
2022-10-05T01:15:25.614Z,89.66
2022-10-05T01:16:25.648Z,89.66
2022-10-05T01:17:25.588Z,89.66
2022-10-05T01:18:25.561Z,89.76
2022-10-05T01:19:25.552Z,89.87
2022-10-05T01:20:25.547Z,89.87
2022-10-05T01:21:25.533Z,89.97
2022-10-05T01:22:46.512Z,90.17
2022-10-05T01:23:25.552Z,90.37
2022-10-05T01:24:25.497Z,90.58
2022-10-05T01:25:25.498Z,90.79
2022-10-05T01:26:25.481Z,90.89
2022-10-05T01:27:25.466Z,91.30
2022-10-05T01:28:25.526Z,92.02
2022-10-05T01:29:25.442Z,92.63
2022-10-05T01:30:25.427Z,93.04
2022-10-05T01:31:25.505Z,92.94
2022-10-05T01:32:25.407Z,92.53
2022-10-05T01:33:25.395Z,92.18
2022-10-05T01:34:25.381Z,91.97
2022-10-05T01:35:25.366Z,91.87
2022-10-05T01:36:25.387Z,91.97
2022-10-05T01:37:25.347Z,92.08
2022-10-05T01:38:25.334Z,91.97
2022-10-05T01:39:25.328Z,91.87
2022-10-05T01:40:25.312Z,91.87
2022-10-05T01:41:25.312Z,91.77
2022-10-05T01:42:25.289Z,91.56
2022-10-05T01:43:25.268Z,91.56
2022-10-05T01:44:25.285Z,91.46
2022-10-05T01:45:25.272Z,91.46
2022-10-05T01:46:25.247Z,91.46
2022-10-05T01:47:25.236Z,91.46
2022-10-05T01:48:25.220Z,91.67
2022-10-05T01:49:25.231Z,91.77
2022-10-05T01:50:25.193Z,91.67
2022-10-05T01:51:25.191Z,91.67
2022-10-05T01:52:25.172Z,91.87
2022-10-05T01:53:25.173Z,92.38
2022-10-05T01:54:25.175Z,92.69
2022-10-05T01:55:25.189Z,92.59
2022-10-05T01:56:25.133Z,92.59
2022-10-05T01:57:25.123Z,92.59
2022-10-05T01:58:25.112Z,92.69
2022-10-05T01:59:25.118Z,92.59
2022-10-05T02:00:25.088Z,92.49
2022-10-05T02:01:25.164Z,92.38
2022-10-05T02:02:25.112Z,92.38
2022-10-05T02:03:25.054Z,92.38
2022-10-05T02:04:59.754Z,92.49
2022-10-05T02:05:26.049Z,92.59
2022-10-05T02:06:25.443Z,92.49
2022-10-05T02:07:25.016Z,92.28
2022-10-05T02:08:24.999Z,92.08
2022-10-05T02:09:25.004Z,91.97
2022-10-05T02:10:24.982Z,91.87
2022-10-05T02:11:24.976Z,91.77
2022-10-05T02:12:24.963Z,91.87
2022-10-05T02:13:24.949Z,91.87
2022-10-05T02:14:24.948Z,91.77
2022-10-05T02:15:24.934Z,92.08
2022-10-05T02:16:24.979Z,92.28
2022-10-05T02:17:24.913Z,92.38
2022-10-05T02:18:24.895Z,92.28
2022-10-05T02:19:24.888Z,92.28
2022-10-05T02:20:24.879Z,92.38
2022-10-05T02:21:24.859Z,92.38
2022-10-05T02:22:24.852Z,92.49
2022-10-05T02:23:24.850Z,92.69
2022-10-05T02:24:24.820Z,92.59
2022-10-05T02:25:24.822Z,92.69
2022-10-05T02:26:24.808Z,92.69
2022-10-05T02:27:24.810Z,92.69
2022-10-05T02:28:24.818Z,92.59
2022-10-05T02:29:24.771Z,92.59
2022-10-05T02:30:24.754Z,92.55
2022-10-05T02:31:24.794Z,92.55
2022-10-05T02:32:24.750Z,92.44
2022-10-05T02:33:24.721Z,92.34
2022-10-05T02:34:24.719Z,92.24
2022-10-05T02:35:24.700Z,92.14
2022-10-05T02:36:24.693Z,91.93
2022-10-05T02:37:24.705Z,91.73
2022-10-05T02:38:24.678Z,91.83
2022-10-05T02:39:24.661Z,91.63
2022-10-05T02:40:24.664Z,91.67
2022-10-05T02:41:24.657Z,91.67
2022-10-05T02:42:25.457Z,91.56
2022-10-05T02:43:25.352Z,91.67
2022-10-05T02:44:24.622Z,91.77
2022-10-05T02:45:24.606Z,91.77
2022-10-05T02:46:24.662Z,91.77
2022-10-05T02:47:25.523Z,91.97
2022-10-05T02:48:24.572Z,91.97
2022-10-05T02:49:24.538Z,92.08
2022-10-05T02:50:24.540Z,92.18
2022-10-05T02:51:24.561Z,92.28
2022-10-05T02:52:24.505Z,92.38
2022-10-05T02:53:24.502Z,92.49
2022-10-05T02:54:24.498Z,92.49
2022-10-05T02:55:24.548Z,92.59
2022-10-05T02:56:24.487Z,92.69
2022-10-05T02:57:24.464Z,92.79
2022-10-05T02:58:24.442Z,92.79
2022-10-05T02:59:24.448Z,92.79
2022-10-05T03:00:24.426Z,92.79
2022-10-05T03:01:24.475Z,92.69
2022-10-05T03:02:24.448Z,92.69
2022-10-05T03:03:24.382Z,92.59
2022-10-05T03:04:24.387Z,92.69
2022-10-05T03:05:24.395Z,92.69
2022-10-05T03:06:24.353Z,92.90
2022-10-05T03:07:24.354Z,92.90
2022-10-05T03:08:24.340Z,92.90
2022-10-05T03:09:24.330Z,93.00
2022-10-05T03:10:24.368Z,93.00
2022-10-05T03:11:24.319Z,93.00
2022-10-05T03:12:24.297Z,93.00
2022-10-05T03:13:24.286Z,92.90
2022-10-05T03:14:24.266Z,92.79
2022-10-05T03:15:24.249Z,92.59
2022-10-05T03:16:24.287Z,92.49
2022-10-05T03:17:24.274Z,92.59
2022-10-05T03:18:28.631Z,92.49
2022-10-05T03:19:25.208Z,92.79
2022-10-05T03:20:24.206Z,92.90
2022-10-05T03:21:24.197Z,93.00
2022-10-05T03:22:24.169Z,93.10
2022-10-05T03:23:24.179Z,93.10
2022-10-05T03:24:24.150Z,93.10
2022-10-05T03:25:24.139Z,93.10
2022-10-05T03:26:24.131Z,93.00
2022-10-05T03:27:24.117Z,92.90
2022-10-05T03:28:24.207Z,92.90
2022-10-05T03:29:24.111Z,92.90
2022-10-05T03:30:24.081Z,93.00
2022-10-05T03:31:24.146Z,93.00
2022-10-05T03:32:24.061Z,93.00
2022-10-05T03:33:24.059Z,93.00
2022-10-05T03:34:24.049Z,93.10
2022-10-05T03:35:24.047Z,93.10
2022-10-05T03:36:24.019Z,93.10
2022-10-05T03:37:24.003Z,93.00
2022-10-05T03:38:23.996Z,93.00
2022-10-05T03:39:23.983Z,92.90
2022-10-05T03:40:24.003Z,92.79
2022-10-05T03:41:23.988Z,92.79
2022-10-05T03:42:23.944Z,92.79
2022-10-05T03:43:23.954Z,92.69
2022-10-05T03:44:23.918Z,92.69
2022-10-05T03:45:23.915Z,92.69
2022-10-05T03:46:23.925Z,92.69
2022-10-05T03:47:23.896Z,92.69
2022-10-05T03:48:23.885Z,92.90
2022-10-05T03:49:23.866Z,92.90
2022-10-05T03:50:23.862Z,93.00
2022-10-05T03:51:23.861Z,93.00
2022-10-05T03:52:23.835Z,93.00
2022-10-05T03:53:23.819Z,93.10
2022-10-05T03:54:23.809Z,93.20
2022-10-05T03:55:23.797Z,93.20
2022-10-05T03:56:23.805Z,93.20
2022-10-05T03:57:23.779Z,93.20
2022-10-05T03:58:23.769Z,93.30
2022-10-05T03:59:23.754Z,93.30
2022-10-05T04:00:23.741Z,93.30
2022-10-05T04:01:23.786Z,93.30
2022-10-05T04:02:23.784Z,93.30
2022-10-05T04:03:23.735Z,93.30
2022-10-05T04:04:23.694Z,93.20
2022-10-05T04:05:23.682Z,93.30
2022-10-05T04:06:23.685Z,93.26
2022-10-05T04:07:23.672Z,93.16
2022-10-05T04:08:23.683Z,93.16
2022-10-05T04:09:23.653Z,93.16
2022-10-05T04:10:23.623Z,93.06
2022-10-05T04:11:23.625Z,92.96
2022-10-05T04:12:23.613Z,92.96
2022-10-05T04:13:23.611Z,92.96
2022-10-05T04:14:23.582Z,92.96
2022-10-05T04:15:23.573Z,92.96
2022-10-05T04:16:23.661Z,92.96
2022-10-05T04:17:23.585Z,92.96
2022-10-05T04:18:23.554Z,92.85
2022-10-05T04:19:23.525Z,92.85
2022-10-05T04:20:23.524Z,92.85
2022-10-05T04:21:24.121Z,92.85
2022-10-05T04:22:23.504Z,92.75
2022-10-05T04:23:23.513Z,92.75
2022-10-05T04:24:23.470Z,92.75
2022-10-05T04:25:23.460Z,92.75
2022-10-05T04:26:23.457Z,92.75
2022-10-05T04:27:23.439Z,92.65
2022-10-05T04:28:26.045Z,92.75
2022-10-05T04:29:23.415Z,92.85
2022-10-05T04:30:23.417Z,92.96
2022-10-05T04:31:23.460Z,92.96
2022-10-05T04:32:23.377Z,92.96
2022-10-05T04:33:23.389Z,92.96
2022-10-05T04:34:23.358Z,92.96
2022-10-05T04:35:23.350Z,93.06
2022-10-05T04:36:23.330Z,93.16
2022-10-05T04:37:23.323Z,93.16
2022-10-05T04:38:23.334Z,93.30
2022-10-05T04:39:23.301Z,93.37
2022-10-05T04:40:23.285Z,93.37
2022-10-05T04:41:23.282Z,93.47
2022-10-05T04:42:23.269Z,93.47
2022-10-05T04:43:23.277Z,93.47
2022-10-05T04:44:23.253Z,93.57
2022-10-05T04:45:23.240Z,93.51
2022-10-05T04:46:23.300Z,93.57
2022-10-05T04:47:23.212Z,93.57
2022-10-05T04:48:23.194Z,93.47
2022-10-05T04:49:23.204Z,93.37
2022-10-05T04:50:23.182Z,93.37
2022-10-05T04:51:23.184Z,93.37
2022-10-05T04:52:23.160Z,93.26
2022-10-05T04:53:23.147Z,93.26
2022-10-05T04:54:23.130Z,93.26
2022-10-05T04:55:23.135Z,93.37
2022-10-05T04:56:23.108Z,93.37
2022-10-05T04:57:23.114Z,93.47
2022-10-05T04:58:23.086Z,93.57
2022-10-05T04:59:23.102Z,93.67
2022-10-05T05:00:23.067Z,93.67
2022-10-05T05:01:23.125Z,93.77
2022-10-05T05:02:23.059Z,93.67
2022-10-05T05:03:23.108Z,93.67
2022-10-05T05:04:23.040Z,93.67
2022-10-05T05:05:23.983Z,93.67
2022-10-05T05:06:22.999Z,93.57
2022-10-05T05:07:22.999Z,93.57
2022-10-05T05:08:22.980Z,93.67
2022-10-05T05:09:22.957Z,93.67
2022-10-05T05:10:22.956Z,93.67
2022-10-05T05:11:24.665Z,93.77
2022-10-05T05:12:22.931Z,93.67
2022-10-05T05:13:22.912Z,93.67
2022-10-05T05:14:22.930Z,93.57
2022-10-05T05:15:22.918Z,93.67
2022-10-05T05:16:22.914Z,93.67
2022-10-05T05:17:22.873Z,93.67
2022-10-05T05:18:22.865Z,93.67
2022-10-05T05:19:22.853Z,93.57
2022-10-05T05:20:22.839Z,93.57
2022-10-05T05:21:22.826Z,93.67
2022-10-05T05:22:22.814Z,93.77
2022-10-05T05:23:22.827Z,93.88
2022-10-05T05:24:22.795Z,93.88
2022-10-05T05:25:22.775Z,93.88
2022-10-05T05:26:22.765Z,93.98
2022-10-05T05:27:22.776Z,93.88
2022-10-05T05:28:22.830Z,93.88
2022-10-05T05:29:22.745Z,93.88
2022-10-05T05:30:22.732Z,93.88
2022-10-05T05:31:22.797Z,93.98
2022-10-05T05:32:22.712Z,93.98
2022-10-05T05:33:22.715Z,93.98
2022-10-05T05:34:23.627Z,93.88
2022-10-05T05:35:22.670Z,93.77
2022-10-05T05:36:23.556Z,93.67
2022-10-05T05:37:22.659Z,93.57
2022-10-05T05:38:22.640Z,93.47
2022-10-05T05:39:22.624Z,93.57
2022-10-05T05:40:22.631Z,93.77
2022-10-05T05:41:22.609Z,93.77
2022-10-05T05:42:22.709Z,93.88
2022-10-05T05:43:22.569Z,93.77
2022-10-05T05:44:22.589Z,93.88
2022-10-05T05:45:22.550Z,93.88
2022-10-05T05:46:33.960Z,93.88
2022-10-05T05:47:23.600Z,93.77
2022-10-05T05:48:22.522Z,93.67
2022-10-05T05:49:22.514Z,93.57
2022-10-05T05:50:22.511Z,93.57
2022-10-05T05:51:22.480Z,93.57
2022-10-05T05:52:22.504Z,93.52
2022-10-05T05:53:22.468Z,93.43
2022-10-05T05:54:22.444Z,93.32
2022-10-05T05:55:25.408Z,93.22
2022-10-05T05:56:23.436Z,93.22
2022-10-05T05:57:22.414Z,93.12
2022-10-05T05:58:22.441Z,93.01
2022-10-05T05:59:22.406Z,92.91
2022-10-05T06:00:22.418Z,92.91
2022-10-05T06:01:32.695Z,92.91
2022-10-05T06:02:23.511Z,92.91
2022-10-05T06:03:22.588Z,92.91
2022-10-05T06:04:22.349Z,92.81
2022-10-05T06:05:22.329Z,92.81
2022-10-05T06:06:22.322Z,92.81
2022-10-05T06:07:25.648Z,92.81
2022-10-05T06:08:23.315Z,92.71
2022-10-05T06:09:22.293Z,92.71
2022-10-05T06:10:22.279Z,92.66
2022-10-05T06:11:22.259Z,92.66
2022-10-05T06:12:22.256Z,92.71
2022-10-05T06:13:22.269Z,92.66
2022-10-05T06:14:22.228Z,92.56
2022-10-05T06:15:22.221Z,92.66
2022-10-05T06:16:22.309Z,92.66
2022-10-05T06:17:22.195Z,92.56
2022-10-05T06:18:22.221Z,92.56
2022-10-05T06:19:22.169Z,92.46
2022-10-05T06:20:22.162Z,92.46
2022-10-05T06:21:22.162Z,92.36
2022-10-05T06:22:22.140Z,92.36
2022-10-05T06:23:22.136Z,92.36
2022-10-05T06:24:22.149Z,92.15
2022-10-05T06:25:22.097Z,92.05
2022-10-05T06:26:22.103Z,92.05
2022-10-05T06:27:22.081Z,92.05
2022-10-05T06:28:22.110Z,92.15
2022-10-05T06:29:22.074Z,92.15
2022-10-05T06:30:22.076Z,92.15
2022-10-05T06:31:22.088Z,92.25
2022-10-05T06:32:22.986Z,92.25
2022-10-05T06:33:22.017Z,92.32
2022-10-05T06:34:22.014Z,92.21
2022-10-05T06:35:22.013Z,92.21
2022-10-05T06:36:21.978Z,92.11
2022-10-05T06:37:21.966Z,91.91
2022-10-05T06:38:21.969Z,92.21
2022-10-05T06:39:21.963Z,92.32
2022-10-05T06:40:21.938Z,92.42
2022-10-05T06:41:21.930Z,92.52
2022-10-05T06:42:21.934Z,92.37
2022-10-05T06:43:21.907Z,92.37
2022-10-05T06:44:21.906Z,92.37
2022-10-05T06:45:21.873Z,92.37
2022-10-05T06:46:21.923Z,92.37
2022-10-05T06:47:21.863Z,92.37
2022-10-05T06:48:21.853Z,92.13
2022-10-05T06:49:21.833Z,92.02
2022-10-05T06:50:21.852Z,91.92
2022-10-05T06:51:21.811Z,91.92
2022-10-05T06:52:21.805Z,91.88
2022-10-05T06:53:21.802Z,91.78
2022-10-05T06:54:21.788Z,91.98
2022-10-05T06:55:21.771Z,91.98
2022-10-05T06:56:21.758Z,91.78
2022-10-05T06:57:21.760Z,91.43
2022-10-05T06:58:21.815Z,91.53
2022-10-05T06:59:21.723Z,91.74
2022-10-05T07:00:21.715Z,91.74
2022-10-05T07:01:21.812Z,91.63
2022-10-05T07:02:21.725Z,91.53
2022-10-05T07:03:22.634Z,91.74
2022-10-05T07:04:21.685Z,91.69
2022-10-05T07:05:21.668Z,91.49
2022-10-05T07:06:21.661Z,91.69
2022-10-05T07:07:21.631Z,91.59
2022-10-05T07:08:21.618Z,91.39
2022-10-05T07:09:21.614Z,91.39
2022-10-05T07:10:21.629Z,91.49
2022-10-05T07:11:21.588Z,91.28
2022-10-05T07:12:21.578Z,91.14
2022-10-05T07:13:21.573Z,91.44
2022-10-05T07:14:21.587Z,91.35
2022-10-05T07:15:21.549Z,91.55
2022-10-05T07:16:21.580Z,91.55
2022-10-05T07:17:21.521Z,91.44
2022-10-05T07:18:21.540Z,91.44
2022-10-05T07:19:21.498Z,91.44
2022-10-05T07:20:21.491Z,91.35
2022-10-05T07:21:21.485Z,91.44
2022-10-05T07:22:22.430Z,91.35
2022-10-05T07:23:21.486Z,91.24
2022-10-05T07:24:21.452Z,91.20
2022-10-05T07:25:21.438Z,90.99
2022-10-05T07:26:21.423Z,90.48
2022-10-05T07:27:21.413Z,90.18
2022-10-05T07:28:21.446Z,90.14
2022-10-05T07:29:21.384Z,90.03
2022-10-05T07:30:21.393Z,89.94
2022-10-05T07:31:21.445Z,89.53
2022-10-05T07:32:21.355Z,89.22
2022-10-05T07:33:21.354Z,89.22
2022-10-05T07:34:21.342Z,89.42
2022-10-05T07:35:21.335Z,89.22
2022-10-05T07:36:21.325Z,88.92
2022-10-05T07:37:21.301Z,88.81
2022-10-05T07:38:21.311Z,88.81
2022-10-05T07:39:21.398Z,88.36
2022-10-05T07:40:21.289Z,88.16
2022-10-05T07:41:21.302Z,88.16
2022-10-05T07:42:21.252Z,87.75
2022-10-05T07:43:21.231Z,87.20
2022-10-05T07:44:21.242Z,87.20
2022-10-05T07:45:21.246Z,86.69
2022-10-05T07:46:21.335Z,86.49
2022-10-05T07:47:21.192Z,86.39
2022-10-05T07:48:21.194Z,86.08
2022-10-05T07:49:21.184Z,86.19
2022-10-05T07:50:21.183Z,85.78
2022-10-05T07:51:21.150Z,85.68
2022-10-05T07:52:21.146Z,85.78
2022-10-05T07:53:21.138Z,85.68
2022-10-05T07:54:21.141Z,85.43
2022-10-05T07:55:21.111Z,85.43
2022-10-05T07:56:21.101Z,85.43
2022-10-05T07:57:21.089Z,85.33
2022-10-05T07:58:21.063Z,85.33
2022-10-05T07:59:21.088Z,84.78
2022-10-05T08:00:21.067Z,84.88
2022-10-05T08:01:21.071Z,84.52
2022-10-05T08:02:21.195Z,84.68
2022-10-05T08:03:21.086Z,84.48
2022-10-05T08:04:21.007Z,84.38
2022-10-05T08:05:20.996Z,84.58
2022-10-05T08:06:20.997Z,84.68
2022-10-05T08:07:21.078Z,84.88
2022-10-05T08:08:20.959Z,84.68
2022-10-05T08:09:20.952Z,84.17
2022-10-05T08:10:20.983Z,84.17
2022-10-05T08:11:20.934Z,84.17
2022-10-05T08:12:21.887Z,84.23
2022-10-05T08:13:20.896Z,83.83
2022-10-05T08:14:20.892Z,83.53
2022-10-05T08:15:20.880Z,83.53
2022-10-05T08:16:20.940Z,83.53
2022-10-05T08:17:25.437Z,83.32
2022-10-05T08:18:21.881Z,83.22
2022-10-05T08:19:20.838Z,83.28
2022-10-05T08:20:20.891Z,83.22
2022-10-05T08:21:20.822Z,82.67
2022-10-05T08:22:20.819Z,82.67
2022-10-05T08:23:20.790Z,82.87
2022-10-05T08:24:20.789Z,83.08
2022-10-05T08:25:20.774Z,83.18
2022-10-05T08:26:20.773Z,83.18
2022-10-05T08:27:20.752Z,82.87
2022-10-05T08:28:20.794Z,82.67
2022-10-05T08:29:20.742Z,82.43
2022-10-05T08:30:20.764Z,82.64
2022-10-05T08:31:20.798Z,82.64
2022-10-05T08:32:20.701Z,82.64
2022-10-05T08:33:20.693Z,82.94
2022-10-05T08:34:20.668Z,82.43
2022-10-05T08:35:20.663Z,82.23
2022-10-05T08:36:20.640Z,82.23
2022-10-05T08:37:20.646Z,82.09
2022-10-05T08:38:20.662Z,82.29
2022-10-05T08:39:20.607Z,81.58
2022-10-05T08:40:20.612Z,81.48
2022-10-05T08:41:20.600Z,81.27
2022-10-05T08:42:20.589Z,81.27
2022-10-05T08:43:20.567Z,81.27
2022-10-05T08:44:20.568Z,81.18
2022-10-05T08:45:20.542Z,81.18
2022-10-05T08:46:20.588Z,81.18
2022-10-05T08:47:20.537Z,80.97
2022-10-05T08:48:20.521Z,80.77
2022-10-05T08:49:20.552Z,81.18
2022-10-05T08:50:20.484Z,80.97
2022-10-05T08:51:20.489Z,80.73
2022-10-05T08:52:20.459Z,80.63
2022-10-05T08:53:20.523Z,80.43
2022-10-05T08:54:20.462Z,80.83
2022-10-05T08:55:20.435Z,80.93
2022-10-05T08:56:22.290Z,81.13
2022-10-05T08:57:20.405Z,80.93
2022-10-05T08:58:20.391Z,80.73
2022-10-05T08:59:20.388Z,80.29
2022-10-05T09:00:20.364Z,80.08
2022-10-05T09:01:20.401Z,80.29
2022-10-05T09:02:20.422Z,80.29
2022-10-05T09:03:20.347Z,79.98
2022-10-05T09:04:20.326Z,79.78
2022-10-05T09:05:20.315Z,79.68
2022-10-05T09:06:20.313Z,79.58
2022-10-05T09:07:20.301Z,79.68
2022-10-05T09:08:20.284Z,79.58
2022-10-05T09:09:20.275Z,79.44
2022-10-05T09:10:20.257Z,79.13
2022-10-05T09:11:20.262Z,79.03
2022-10-05T09:12:21.183Z,78.93
2022-10-05T09:13:20.219Z,78.83
2022-10-05T09:14:20.220Z,78.73
2022-10-05T09:15:25.710Z,78.63
2022-10-05T09:16:21.253Z,78.93
2022-10-05T09:17:20.191Z,79.13
2022-10-05T09:18:20.177Z,79.24
2022-10-05T09:19:20.168Z,79.13
2022-10-05T09:20:20.152Z,79.03
2022-10-05T09:21:20.154Z,79.27
2022-10-05T09:22:20.138Z,79.38
2022-10-05T09:23:20.107Z,79.58
2022-10-05T09:24:20.094Z,79.47
2022-10-05T09:25:20.082Z,79.88
2022-10-05T09:26:20.072Z,80.22
2022-10-05T09:27:20.085Z,80.43
2022-10-05T09:28:20.131Z,80.43
2022-10-05T09:29:20.042Z,80.63
2022-10-05T09:30:20.042Z,80.53
2022-10-05T09:31:20.090Z,80.73
2022-10-05T09:32:20.006Z,80.73
2022-10-05T09:33:19.996Z,80.73
2022-10-05T09:34:19.986Z,80.69
2022-10-05T09:35:19.991Z,80.59
2022-10-05T09:36:19.957Z,80.59
2022-10-05T09:37:19.967Z,80.39
2022-10-05T09:38:19.939Z,80.53
2022-10-05T09:39:19.920Z,80.69
2022-10-05T09:40:19.920Z,80.49
2022-10-05T09:41:19.924Z,80.39
2022-10-05T09:42:19.899Z,80.49
2022-10-05T09:43:19.910Z,80.49
2022-10-05T09:44:19.868Z,80.59
2022-10-05T09:45:21.491Z,80.90
2022-10-05T09:46:19.872Z,80.79
2022-10-05T09:47:19.855Z,80.39
2022-10-05T09:48:19.831Z,80.19
2022-10-05T09:49:19.838Z,80.29
2022-10-05T09:50:19.796Z,80.59
2022-10-05T09:51:19.794Z,80.59
2022-10-05T09:52:19.787Z,80.99
2022-10-05T09:53:19.807Z,81.10
2022-10-05T09:54:19.771Z,80.29
2022-10-05T09:55:19.761Z,80.49
2022-10-05T09:56:19.758Z,80.39
2022-10-05T09:57:19.717Z,80.29
2022-10-05T09:58:19.705Z,80.29
2022-10-05T09:59:19.710Z,80.08
2022-10-05T10:00:19.675Z,80.15
2022-10-05T10:01:33.222Z,80.05
2022-10-05T10:02:20.799Z,80.15
2022-10-05T10:03:19.727Z,80.55
2022-10-05T10:04:19.637Z,80.86
2022-10-05T10:05:19.661Z,80.35
2022-10-05T10:06:19.613Z,80.15
2022-10-05T10:07:19.611Z,79.94
2022-10-05T10:08:19.602Z,79.94
2022-10-05T10:09:19.579Z,80.11
2022-10-05T10:10:19.584Z,80.31
2022-10-05T10:11:19.564Z,80.21
2022-10-05T10:12:19.553Z,80.11
2022-10-05T10:13:19.540Z,79.57
2022-10-05T10:14:19.521Z,79.26
2022-10-05T10:15:19.521Z,78.72
2022-10-05T10:16:19.569Z,77.30
2022-10-05T10:17:19.495Z,77.50
2022-10-05T10:18:19.490Z,77.61
2022-10-05T10:19:19.482Z,77.00
2022-10-05T10:20:19.453Z,76.46
2022-10-05T10:21:19.471Z,76.86
2022-10-05T10:22:19.451Z,76.66
2022-10-05T10:23:19.431Z,75.55
2022-10-05T10:24:19.444Z,75.55
2022-10-05T10:25:19.434Z,74.80
2022-10-05T10:26:19.399Z,74.90
2022-10-05T10:27:19.388Z,74.70
2022-10-05T10:28:19.411Z,74.40
2022-10-05T10:29:19.402Z,74.70
2022-10-05T10:30:19.365Z,75.10
2022-10-05T10:31:19.390Z,74.40
2022-10-05T10:32:19.319Z,73.99
2022-10-05T10:33:19.326Z,74.16
2022-10-05T10:34:19.328Z,74.26
2022-10-05T10:35:19.420Z,74.57
2022-10-05T10:36:19.277Z,74.46
2022-10-05T10:37:19.277Z,73.86
2022-10-05T10:38:19.278Z,73.96
2022-10-05T10:39:21.214Z,74.16
2022-10-05T10:40:19.329Z,73.22
2022-10-05T10:41:19.224Z,73.32
2022-10-05T10:42:23.806Z,73.42
2022-10-05T10:43:20.200Z,72.91
2022-10-05T10:44:19.225Z,72.68
2022-10-05T10:45:19.181Z,72.88
2022-10-05T10:46:19.205Z,73.18
2022-10-05T10:47:19.160Z,72.98
2022-10-05T10:48:19.158Z,71.67
2022-10-05T10:49:19.132Z,71.97
2022-10-05T10:50:19.133Z,72.17
2022-10-05T10:51:19.121Z,71.97
2022-10-05T10:52:19.105Z,71.13
2022-10-05T10:53:19.117Z,71.44
2022-10-05T10:54:19.079Z,71.44
2022-10-05T10:55:19.077Z,71.84
2022-10-05T10:56:19.047Z,71.64
2022-10-05T10:57:19.061Z,71.13
2022-10-05T10:58:19.101Z,70.73
2022-10-05T10:59:19.022Z,70.12
2022-10-05T11:00:19.029Z,71.03
2022-10-05T11:01:19.062Z,71.44
2022-10-05T11:02:19.018Z,71.44
2022-10-05T11:03:18.996Z,71.03
2022-10-05T11:04:18.975Z,71.13
2022-10-05T11:05:18.970Z,70.73
2022-10-05T11:06:18.936Z,71.23
2022-10-05T11:07:18.931Z,70.53
2022-10-05T11:08:18.913Z,70.73
2022-10-05T11:09:18.908Z,70.22
2022-10-05T11:10:19.854Z,70.12
2022-10-05T11:11:18.886Z,70.42
2022-10-05T11:12:18.865Z,70.42
2022-10-05T11:13:18.864Z,70.86
2022-10-05T11:14:18.864Z,70.62
2022-10-05T11:15:18.859Z,70.83
2022-10-05T11:16:19.796Z,70.32
2022-10-05T11:17:18.842Z,70.73
2022-10-05T11:18:18.819Z,70.86
2022-10-05T11:19:18.797Z,71.26
2022-10-05T11:20:18.783Z,71.57
2022-10-05T11:21:18.771Z,71.47
2022-10-05T11:22:18.780Z,71.03
2022-10-05T11:23:18.745Z,70.93
2022-10-05T11:24:18.734Z,71.03
2022-10-05T11:25:18.728Z,71.13
2022-10-05T11:26:18.708Z,70.59
2022-10-05T11:27:18.748Z,70.59
2022-10-05T11:28:18.736Z,70.49
2022-10-05T11:29:18.684Z,69.99
2022-10-05T11:30:18.660Z,69.48
2022-10-05T11:31:18.751Z,69.59
2022-10-05T11:32:18.640Z,69.59
2022-10-05T11:33:18.648Z,69.38
2022-10-05T11:34:18.614Z,68.98
2022-10-05T11:35:18.624Z,68.77
2022-10-05T11:36:18.609Z,69.28
2022-10-05T11:37:18.620Z,69.59
2022-10-05T11:38:18.584Z,69.99
2022-10-05T11:39:18.562Z,70.39
2022-10-05T11:40:18.567Z,69.99
2022-10-05T11:41:18.575Z,69.18
2022-10-05T11:42:18.567Z,68.88
2022-10-05T11:43:18.585Z,68.68
2022-10-05T11:44:18.627Z,69.05
2022-10-05T11:45:18.505Z,69.15
2022-10-05T11:46:18.567Z,69.85
2022-10-05T11:47:18.504Z,69.55
2022-10-05T11:48:18.461Z,69.65
2022-10-05T11:49:18.458Z,69.75
2022-10-05T11:50:18.451Z,69.75
2022-10-05T11:51:18.470Z,69.85
2022-10-05T11:52:18.437Z,69.95
2022-10-05T11:53:18.407Z,70.06
2022-10-05T11:54:18.591Z,69.85
2022-10-05T11:55:18.381Z,69.55
2022-10-05T11:56:18.418Z,68.65
2022-10-05T11:57:18.363Z,69.95
2022-10-05T11:58:18.369Z,69.85
2022-10-05T11:59:18.346Z,69.75
2022-10-05T12:00:18.337Z,69.55
2022-10-05T12:01:18.346Z,69.35
2022-10-05T12:02:18.331Z,68.74
2022-10-05T12:03:18.686Z,69.25
2022-10-05T12:04:18.596Z,69.85
2022-10-05T12:05:18.279Z,69.75
2022-10-05T12:06:18.274Z,69.65
2022-10-05T12:07:18.281Z,69.65
2022-10-05T12:08:18.243Z,69.75
2022-10-05T12:09:18.246Z,69.85
2022-10-05T12:10:18.222Z,69.95
2022-10-05T12:11:18.223Z,69.12
2022-10-05T12:12:18.191Z,69.12
2022-10-05T12:13:18.210Z,69.21
2022-10-05T12:14:18.175Z,69.01
2022-10-05T12:15:18.188Z,69.42
2022-10-05T12:16:18.265Z,69.32
2022-10-05T12:17:18.163Z,68.01
2022-10-05T12:18:18.132Z,68.18
2022-10-05T12:19:18.115Z,68.21
2022-10-05T12:20:18.146Z,68.21
2022-10-05T12:21:18.099Z,68.18
2022-10-05T12:22:18.098Z,68.38
2022-10-05T12:23:18.475Z,68.68
2022-10-05T12:24:18.053Z,68.48
2022-10-05T12:25:18.074Z,69.62
2022-10-05T12:26:18.039Z,69.18
2022-10-05T12:27:18.026Z,68.78
2022-10-05T12:28:18.059Z,67.88
2022-10-05T12:29:18.010Z,68.18
2022-10-05T12:30:18.022Z,68.78
2022-10-05T12:31:17.996Z,68.18
2022-10-05T12:32:17.979Z,68.15
2022-10-05T12:33:17.955Z,68.44
2022-10-05T12:34:17.955Z,68.68
2022-10-05T12:35:30.081Z,68.08
2022-10-05T12:36:18.948Z,68.18
2022-10-05T12:37:17.937Z,68.48
2022-10-05T12:38:17.906Z,68.48
2022-10-05T12:39:17.927Z,67.84
2022-10-05T12:40:17.869Z,67.88
2022-10-05T12:41:17.891Z,67.84
2022-10-05T12:42:17.867Z,67.94
2022-10-05T12:43:17.863Z,68.04
2022-10-05T12:44:17.847Z,68.35
2022-10-05T12:45:17.832Z,68.85
2022-10-05T12:46:19.295Z,68.35
2022-10-05T12:47:17.809Z,68.44
2022-10-05T12:48:17.820Z,68.44
2022-10-05T12:49:17.788Z,68.24
2022-10-05T12:50:17.763Z,68.08
2022-10-05T12:51:17.779Z,68.58
2022-10-05T12:52:17.754Z,68.78